sensor_id;sensor_type;location;lat;lon;timestamp;P1;durP1;ratioP1;P2;durP2;ratioP2
7969;SDS011;4030;52.362;9.206;2023-02-15T00:01:47;5.30;;;4.80;;
7969;SDS011;4030;52.362;9.206;2023-02-15T00:04:14;5.60;;;5.10;;
7969;SDS011;4030;52.362;9.206;2023-02-15T00:06:43;5.50;;;5.00;;
7969;SDS011;4030;52.362;9.206;2023-02-15T00:09:09;5.20;;;4.70;;
7969;SDS011;4030;52.362;9.206;2023-02-15T00:11:36;5.67;;;5.07;;
7969;SDS011;4030;52.362;9.206;2023-02-15T00:14:14;5.83;;;5.03;;
7969;SDS011;4030;52.362;9.206;2023-02-15T00:16:42;5.57;;;5.00;;
7969;SDS011;4030;52.362;9.206;2023-02-15T00:19:09;6.73;;;4.80;;
7969;SDS011;4030;52.362;9.206;2023-02-15T00:21:36;5.00;;;4.60;;
7969;SDS011;4030;52.362;9.206;2023-02-15T00:24:04;6.20;;;5.20;;
7969;SDS011;4030;52.362;9.206;2023-02-15T00:26:32;5.30;;;4.80;;
7969;SDS011;4030;52.362;9.206;2023-02-15T00:28:58;5.07;;;4.63;;
7969;SDS011;4030;52.362;9.206;2023-02-15T00:31:24;5.50;;;5.00;;
7969;SDS011;4030;52.362;9.206;2023-02-15T00:33:50;5.50;;;4.90;;
7969;SDS011;4030;52.362;9.206;2023-02-15T00:36:16;6.35;;;5.15;;
7969;SDS011;4030;52.362;9.206;2023-02-15T00:38:42;5.57;;;5.07;;
7969;SDS011;4030;52.362;9.206;2023-02-15T00:41:08;5.37;;;4.80;;
7969;SDS011;4030;52.362;9.206;2023-02-15T00:43:34;6.03;;;5.27;;
7969;SDS011;4030;52.362;9.206;2023-02-15T00:46:01;5.63;;;4.83;;
7969;SDS011;4030;52.362;9.206;2023-02-15T00:48:28;5.50;;;4.90;;
7969;SDS011;4030;52.362;9.206;2023-02-15T00:50:54;5.40;;;4.90;;
7969;SDS011;4030;52.362;9.206;2023-02-15T00:53:23;5.70;;;5.20;;
7969;SDS011;4030;52.362;9.206;2023-02-15T00:55:50;5.17;;;4.67;;
7969;SDS011;4030;52.362;9.206;2023-02-15T00:58:16;5.30;;;4.80;;
7969;SDS011;4030;52.362;9.206;2023-02-15T01:00:43;5.40;;;4.90;;
7969;SDS011;4030;52.362;9.206;2023-02-15T01:03:11;5.53;;;4.87;;
7969;SDS011;4030;52.362;9.206;2023-02-15T01:05:39;5.40;;;4.83;;
7969;SDS011;4030;52.362;9.206;2023-02-15T01:08:05;6.30;;;5.33;;
7969;SDS011;4030;52.362;9.206;2023-02-15T01:10:31;6.07;;;5.47;;
7969;SDS011;4030;52.362;9.206;2023-02-15T01:12:58;5.63;;;5.13;;
7969;SDS011;4030;52.362;9.206;2023-02-15T01:15:24;7.10;;;5.50;;
7969;SDS011;4030;52.362;9.206;2023-02-15T01:17:50;6.07;;;5.47;;
7969;SDS011;4030;52.362;9.206;2023-02-15T01:20:21;5.83;;;5.23;;
7969;SDS011;4030;52.362;9.206;2023-02-15T01:22:52;6.30;;;5.70;;
7969;SDS011;4030;52.362;9.206;2023-02-15T01:25:20;6.63;;;5.60;;
7969;SDS011;4030;52.362;9.206;2023-02-15T01:27:48;6.03;;;5.47;;
7969;SDS011;4030;52.362;9.206;2023-02-15T01:30:14;5.90;;;5.37;;
7969;SDS011;4030;52.362;9.206;2023-02-15T01:32:41;6.00;;;5.40;;
7969;SDS011;4030;52.362;9.206;2023-02-15T01:35:08;6.13;;;5.33;;
7969;SDS011;4030;52.362;9.206;2023-02-15T01:37:35;6.87;;;5.93;;
7969;SDS011;4030;52.362;9.206;2023-02-15T01:40:02;5.90;;;5.30;;
7969;SDS011;4030;52.362;9.206;2023-02-15T01:42:31;6.27;;;5.67;;
7969;SDS011;4030;52.362;9.206;2023-02-15T01:44:58;6.13;;;5.50;;
7969;SDS011;4030;52.362;9.206;2023-02-15T01:47:42;5.27;;;4.77;;
7969;SDS011;4030;52.362;9.206;2023-02-15T01:50:24;6.77;;;5.67;;
7969;SDS011;4030;52.362;9.206;2023-02-15T01:53:01;6.10;;;5.50;;
7969;SDS011;4030;52.362;9.206;2023-02-15T01:55:43;6.20;;;5.60;;
7969;SDS011;4030;52.362;9.206;2023-02-15T01:58:22;5.80;;;5.30;;
7969;SDS011;4030;52.362;9.206;2023-02-15T02:00:51;5.40;;;4.90;;
7969;SDS011;4030;52.362;9.206;2023-02-15T02:03:18;6.33;;;5.73;;
7969;SDS011;4030;52.362;9.206;2023-02-15T02:06:15;5.60;;;5.07;;
7969;SDS011;4030;52.362;9.206;2023-02-15T02:08:42;6.40;;;5.67;;
7969;SDS011;4030;52.362;9.206;2023-02-15T02:11:12;5.40;;;4.90;;
7969;SDS011;4030;52.362;9.206;2023-02-15T02:13:39;5.67;;;5.17;;
7969;SDS011;4030;52.362;9.206;2023-02-15T02:22:20;5.67;;;5.17;;
7969;SDS011;4030;52.362;9.206;2023-02-15T02:36:57;5.17;;;4.67;;
7969;SDS011;4030;52.362;9.206;2023-02-15T02:39:47;5.37;;;4.87;;
7969;SDS011;4030;52.362;9.206;2023-02-15T02:45:13;5.70;;;4.90;;
7969;SDS011;4030;52.362;9.206;2023-02-15T02:47:50;5.33;;;4.83;;
7969;SDS011;4030;52.362;9.206;2023-02-15T02:50:25;5.10;;;4.60;;
7969;SDS011;4030;52.362;9.206;2023-02-15T02:52:54;5.40;;;4.90;;
7969;SDS011;4030;52.362;9.206;2023-02-15T02:55:28;5.80;;;5.23;;
7969;SDS011;4030;52.362;9.206;2023-02-15T03:00:50;5.67;;;5.17;;
7969;SDS011;4030;52.362;9.206;2023-02-15T03:03:24;5.50;;;5.00;;
7969;SDS011;4030;52.362;9.206;2023-02-15T03:06:19;5.60;;;5.10;;
7969;SDS011;4030;52.362;9.206;2023-02-15T03:08:54;5.60;;;5.10;;
7969;SDS011;4030;52.362;9.206;2023-02-15T03:11:40;5.30;;;4.80;;
7969;SDS011;4030;52.362;9.206;2023-02-15T03:14:09;5.60;;;5.10;;
7969;SDS011;4030;52.362;9.206;2023-02-15T03:16:38;5.60;;;5.00;;
7969;SDS011;4030;52.362;9.206;2023-02-15T03:19:08;5.47;;;4.97;;
7969;SDS011;4030;52.362;9.206;2023-02-15T03:21:43;5.53;;;5.00;;
7969;SDS011;4030;52.362;9.206;2023-02-15T03:24:14;5.60;;;5.10;;
7969;SDS011;4030;52.362;9.206;2023-02-15T03:26:46;5.50;;;5.00;;
7969;SDS011;4030;52.362;9.206;2023-02-15T03:29:16;4.90;;;4.50;;
7969;SDS011;4030;52.362;9.206;2023-02-15T03:31:46;5.63;;;5.10;;
7969;SDS011;4030;52.362;9.206;2023-02-15T03:34:20;5.60;;;5.10;;
7969;SDS011;4030;52.362;9.206;2023-02-15T03:36:50;5.80;;;5.20;;
7969;SDS011;4030;52.362;9.206;2023-02-15T03:44:47;5.30;;;4.80;;
7969;SDS011;4030;52.362;9.206;2023-02-15T03:47:31;5.30;;;4.77;;
7969;SDS011;4030;52.362;9.206;2023-02-15T03:50:07;5.33;;;4.80;;
7969;SDS011;4030;52.362;9.206;2023-02-15T03:53:11;5.27;;;4.77;;
7969;SDS011;4030;52.362;9.206;2023-02-15T03:55:41;5.67;;;4.70;;
7969;SDS011;4030;52.362;9.206;2023-02-15T03:58:14;5.30;;;4.80;;
7969;SDS011;4030;52.362;9.206;2023-02-15T04:00:59;5.97;;;5.40;;
7969;SDS011;4030;52.362;9.206;2023-02-15T04:03:50;5.10;;;4.57;;
7969;SDS011;4030;52.362;9.206;2023-02-15T04:06:25;5.50;;;5.00;;
7969;SDS011;4030;52.362;9.206;2023-02-15T04:08:51;6.00;;;5.40;;
7969;SDS011;4030;52.362;9.206;2023-02-15T04:11:35;5.30;;;4.80;;
7969;SDS011;4030;52.362;9.206;2023-02-15T04:14:01;5.73;;;5.13;;
7969;SDS011;4030;52.362;9.206;2023-02-15T04:16:47;5.90;;;5.30;;
7969;SDS011;4030;52.362;9.206;2023-02-15T04:19:13;5.70;;;5.10;;
7969;SDS011;4030;52.362;9.206;2023-02-15T04:21:57;5.67;;;5.13;;
7969;SDS011;4030;52.362;9.206;2023-02-15T04:24:41;5.93;;;5.37;;
7969;SDS011;4030;52.362;9.206;2023-02-15T04:27:25;5.90;;;5.37;;
7969;SDS011;4030;52.362;9.206;2023-02-15T04:29:51;5.50;;;5.00;;
7969;SDS011;4030;52.362;9.206;2023-02-15T04:32:17;5.77;;;5.23;;
7969;SDS011;4030;52.362;9.206;2023-02-15T04:34:43;5.93;;;5.33;;
7969;SDS011;4030;52.362;9.206;2023-02-15T04:37:09;7.13;;;5.57;;
7969;SDS011;4030;52.362;9.206;2023-02-15T04:39:35;5.57;;;4.93;;
7969;SDS011;4030;52.362;9.206;2023-02-15T04:42:01;5.80;;;5.20;;
7969;SDS011;4030;52.362;9.206;2023-02-15T04:44:27;5.50;;;5.00;;
7969;SDS011;4030;52.362;9.206;2023-02-15T04:46:53;5.43;;;4.93;;
7969;SDS011;4030;52.362;9.206;2023-02-15T04:49:19;5.57;;;5.00;;
7969;SDS011;4030;52.362;9.206;2023-02-15T04:51:45;5.57;;;5.07;;
7969;SDS011;4030;52.362;9.206;2023-02-15T04:54:11;5.50;;;5.00;;
7969;SDS011;4030;52.362;9.206;2023-02-15T04:56:38;5.73;;;5.13;;
7969;SDS011;4030;52.362;9.206;2023-02-15T04:59:04;5.37;;;4.80;;
7969;SDS011;4030;52.362;9.206;2023-02-15T05:01:30;5.50;;;4.90;;
7969;SDS011;4030;52.362;9.206;2023-02-15T05:03:56;5.50;;;5.00;;
7969;SDS011;4030;52.362;9.206;2023-02-15T05:06:22;5.73;;;5.20;;
7969;SDS011;4030;52.362;9.206;2023-02-15T05:08:48;5.50;;;4.90;;
7969;SDS011;4030;52.362;9.206;2023-02-15T05:11:14;5.67;;;5.07;;
7969;SDS011;4030;52.362;9.206;2023-02-15T05:13:40;5.70;;;5.10;;
7969;SDS011;4030;52.362;9.206;2023-02-15T05:16:06;5.10;;;4.60;;
7969;SDS011;4030;52.362;9.206;2023-02-15T05:18:32;5.70;;;5.10;;
7969;SDS011;4030;52.362;9.206;2023-02-15T05:20:58;5.70;;;5.20;;
7969;SDS011;4030;52.362;9.206;2023-02-15T05:23:24;6.00;;;5.40;;
7969;SDS011;4030;52.362;9.206;2023-02-15T05:25:51;5.67;;;5.17;;
7969;SDS011;4030;52.362;9.206;2023-02-15T05:28:35;5.90;;;5.30;;
7969;SDS011;4030;52.362;9.206;2023-02-15T05:33:35;7.50;;;5.33;;
7969;SDS011;4030;52.362;9.206;2023-02-15T05:36:02;6.63;;;5.97;;
7969;SDS011;4030;52.362;9.206;2023-02-15T05:38:29;6.17;;;5.50;;
7969;SDS011;4030;52.362;9.206;2023-02-15T05:40:55;5.83;;;5.23;;
7969;SDS011;4030;52.362;9.206;2023-02-15T05:43:21;6.17;;;5.57;;
7969;SDS011;4030;52.362;9.206;2023-02-15T05:45:48;6.43;;;5.70;;
7969;SDS011;4030;52.362;9.206;2023-02-15T05:48:15;6.07;;;5.47;;
7969;SDS011;4030;52.362;9.206;2023-02-15T05:50:41;6.23;;;5.63;;
7969;SDS011;4030;52.362;9.206;2023-02-15T05:53:07;6.00;;;5.40;;
7969;SDS011;4030;52.362;9.206;2023-02-15T05:55:33;6.17;;;5.57;;
7969;SDS011;4030;52.362;9.206;2023-02-15T05:57:59;6.20;;;5.60;;
7969;SDS011;4030;52.362;9.206;2023-02-15T06:00:25;7.43;;;5.97;;
7969;SDS011;4030;52.362;9.206;2023-02-15T06:02:51;6.33;;;5.70;;
7969;SDS011;4030;52.362;9.206;2023-02-15T06:05:17;5.93;;;5.33;;
7969;SDS011;4030;52.362;9.206;2023-02-15T06:07:43;7.27;;;5.87;;
7969;SDS011;4030;52.362;9.206;2023-02-15T06:10:10;6.23;;;5.63;;
7969;SDS011;4030;52.362;9.206;2023-02-15T06:12:36;8.00;;;5.87;;
7969;SDS011;4030;52.362;9.206;2023-02-15T06:15:02;6.20;;;5.60;;
7969;SDS011;4030;52.362;9.206;2023-02-15T06:17:28;6.13;;;5.53;;
7969;SDS011;4030;52.362;9.206;2023-02-15T06:19:54;6.67;;;5.97;;
7969;SDS011;4030;52.362;9.206;2023-02-15T06:22:20;6.33;;;5.67;;
7969;SDS011;4030;52.362;9.206;2023-02-15T06:24:46;7.40;;;6.30;;
7969;SDS011;4030;52.362;9.206;2023-02-15T06:27:12;6.40;;;5.80;;
7969;SDS011;4030;52.362;9.206;2023-02-15T06:29:38;6.73;;;5.93;;
7969;SDS011;4030;52.362;9.206;2023-02-15T06:32:04;6.50;;;5.77;;
7969;SDS011;4030;52.362;9.206;2023-02-15T06:34:30;7.10;;;6.07;;
7969;SDS011;4030;52.362;9.206;2023-02-15T06:36:56;7.23;;;6.03;;
7969;SDS011;4030;52.362;9.206;2023-02-15T06:39:22;7.17;;;6.47;;
7969;SDS011;4030;52.362;9.206;2023-02-15T06:41:48;6.60;;;5.70;;
7969;SDS011;4030;52.362;9.206;2023-02-15T06:44:14;7.43;;;6.47;;
7969;SDS011;4030;52.362;9.206;2023-02-15T06:46:40;8.37;;;6.57;;
7969;SDS011;4030;52.362;9.206;2023-02-15T06:49:06;6.60;;;5.90;;
7969;SDS011;4030;52.362;9.206;2023-02-15T06:51:32;6.60;;;5.97;;
7969;SDS011;4030;52.362;9.206;2023-02-15T06:53:59;23.63;;;8.30;;
7969;SDS011;4030;52.362;9.206;2023-02-15T06:56:25;18.97;;;7.43;;
7969;SDS011;4030;52.362;9.206;2023-02-15T06:58:51;9.47;;;6.20;;
7969;SDS011;4030;52.362;9.206;2023-02-15T07:01:17;11.17;;;6.13;;
7969;SDS011;4030;52.362;9.206;2023-02-15T07:03:43;7.53;;;5.73;;
7969;SDS011;4030;52.362;9.206;2023-02-15T07:06:09;8.47;;;6.00;;
7969;SDS011;4030;52.362;9.206;2023-02-15T07:08:36;7.93;;;6.70;;
7969;SDS011;4030;52.362;9.206;2023-02-15T07:11:04;7.93;;;5.87;;
7969;SDS011;4030;52.362;9.206;2023-02-15T07:13:50;7.60;;;6.17;;
7969;SDS011;4030;52.362;9.206;2023-02-15T07:16:17;6.77;;;5.90;;
7969;SDS011;4030;52.362;9.206;2023-02-15T07:18:44;7.00;;;6.17;;
7969;SDS011;4030;52.362;9.206;2023-02-15T07:21:10;6.87;;;6.17;;
7969;SDS011;4030;52.362;9.206;2023-02-15T07:23:36;7.50;;;6.60;;
7969;SDS011;4030;52.362;9.206;2023-02-15T07:26:02;8.57;;;7.23;;
7969;SDS011;4030;52.362;9.206;2023-02-15T07:28:29;10.67;;;7.23;;
7969;SDS011;4030;52.362;9.206;2023-02-15T07:30:55;27.27;;;8.70;;
7969;SDS011;4030;52.362;9.206;2023-02-15T07:33:22;53.23;;;10.17;;
7969;SDS011;4030;52.362;9.206;2023-02-15T07:38:25;22.63;;;11.70;;
7969;SDS011;4030;52.362;9.206;2023-02-15T07:40:57;22.30;;;11.20;;
7969;SDS011;4030;52.362;9.206;2023-02-15T07:43:24;42.20;;;20.00;;
7969;SDS011;4030;52.362;9.206;2023-02-15T07:45:50;30.13;;;21.50;;
7969;SDS011;4030;52.362;9.206;2023-02-15T07:48:16;23.00;;;14.00;;
7969;SDS011;4030;52.362;9.206;2023-02-15T07:50:42;20.27;;;12.83;;
7969;SDS011;4030;52.362;9.206;2023-02-15T07:53:08;19.17;;;10.10;;
7969;SDS011;4030;52.362;9.206;2023-02-15T07:55:34;18.57;;;10.30;;
7969;SDS011;4030;52.362;9.206;2023-02-15T07:58:01;19.63;;;10.40;;
7969;SDS011;4030;52.362;9.206;2023-02-15T08:00:27;17.30;;;9.60;;
7969;SDS011;4030;52.362;9.206;2023-02-15T08:02:55;17.53;;;9.60;;
7969;SDS011;4030;52.362;9.206;2023-02-15T08:05:40;11.20;;;9.07;;
7969;SDS011;4030;52.362;9.206;2023-02-15T08:08:07;13.47;;;9.90;;
7969;SDS011;4030;52.362;9.206;2023-02-15T08:10:56;10.70;;;9.60;;
7969;SDS011;4030;52.362;9.206;2023-02-15T08:13:43;13.70;;;9.23;;
7969;SDS011;4030;52.362;9.206;2023-02-15T08:16:29;22.53;;;9.87;;
7969;SDS011;4030;52.362;9.206;2023-02-15T08:19:22;14.40;;;9.20;;
7969;SDS011;4030;52.362;9.206;2023-02-15T08:21:54;17.87;;;11.20;;
7969;SDS011;4030;52.362;9.206;2023-02-15T08:24:35;15.57;;;10.53;;
7969;SDS011;4030;52.362;9.206;2023-02-15T08:27:02;11.57;;;9.80;;
7969;SDS011;4030;52.362;9.206;2023-02-15T08:29:29;15.77;;;9.63;;
7969;SDS011;4030;52.362;9.206;2023-02-15T08:31:57;11.80;;;9.83;;
7969;SDS011;4030;52.362;9.206;2023-02-15T08:34:27;11.73;;;9.80;;
7969;SDS011;4030;52.362;9.206;2023-02-15T08:36:56;10.10;;;9.07;;
7969;SDS011;4030;52.362;9.206;2023-02-15T08:39:22;9.73;;;8.60;;
7969;SDS011;4030;52.362;9.206;2023-02-15T08:41:48;11.53;;;9.20;;
7969;SDS011;4030;52.362;9.206;2023-02-15T08:44:14;10.37;;;8.50;;
7969;SDS011;4030;52.362;9.206;2023-02-15T08:46:43;9.70;;;8.50;;
7969;SDS011;4030;52.362;9.206;2023-02-15T08:49:12;10.60;;;8.60;;
7969;SDS011;4030;52.362;9.206;2023-02-15T08:51:44;10.20;;;8.20;;
7969;SDS011;4030;52.362;9.206;2023-02-15T08:54:12;9.67;;;8.73;;
7969;SDS011;4030;52.362;9.206;2023-02-15T08:56:40;8.80;;;7.90;;
7969;SDS011;4030;52.362;9.206;2023-02-15T08:59:11;8.97;;;8.00;;
7969;SDS011;4030;52.362;9.206;2023-02-15T09:01:42;8.77;;;7.87;;
7969;SDS011;4030;52.362;9.206;2023-02-15T09:04:09;8.13;;;7.33;;
7969;SDS011;4030;52.362;9.206;2023-02-15T09:06:35;8.90;;;7.27;;
7969;SDS011;4030;52.362;9.206;2023-02-15T09:09:02;9.07;;;7.20;;
7969;SDS011;4030;52.362;9.206;2023-02-15T09:11:30;8.30;;;7.50;;
7969;SDS011;4030;52.362;9.206;2023-02-15T09:14:00;8.30;;;7.43;;
7969;SDS011;4030;52.362;9.206;2023-02-15T09:16:34;7.90;;;7.13;;
7969;SDS011;4030;52.362;9.206;2023-02-15T09:19:03;8.47;;;7.50;;
7969;SDS011;4030;52.362;9.206;2023-02-15T09:21:30;8.03;;;7.20;;
7969;SDS011;4030;52.362;9.206;2023-02-15T09:23:58;18.17;;;8.67;;
7969;SDS011;4030;52.362;9.206;2023-02-15T09:26:30;10.20;;;7.30;;
7969;SDS011;4030;52.362;9.206;2023-02-15T09:28:59;10.93;;;6.40;;
7969;SDS011;4030;52.362;9.206;2023-02-15T09:31:27;13.07;;;10.43;;
7969;SDS011;4030;52.362;9.206;2023-02-15T09:33:56;12.48;;;11.18;;
7969;SDS011;4030;52.362;9.206;2023-02-15T09:36:26;13.97;;;10.47;;
7969;SDS011;4030;52.362;9.206;2023-02-15T09:38:56;12.70;;;11.40;;
7969;SDS011;4030;52.362;9.206;2023-02-15T09:41:28;13.25;;;11.40;;
7969;SDS011;4030;52.362;9.206;2023-02-15T09:44:27;13.17;;;11.77;;
7969;SDS011;4030;52.362;9.206;2023-02-15T09:59:01;13.25;;;11.52;;
7969;SDS011;4030;52.362;9.206;2023-02-15T10:08:18;13.40;;;12.00;;
7969;SDS011;4030;52.362;9.206;2023-02-15T10:11:17;12.13;;;10.93;;
7969;SDS011;4030;52.362;9.206;2023-02-15T10:20:26;11.75;;;10.57;;
7969;SDS011;4030;52.362;9.206;2023-02-15T10:25:38;11.82;;;10.63;;
7969;SDS011;4030;52.362;9.206;2023-02-15T10:28:29;11.07;;;9.93;;
7969;SDS011;4030;52.362;9.206;2023-02-15T10:34:37;12.07;;;10.88;;
7969;SDS011;4030;52.362;9.206;2023-02-15T10:48:26;10.80;;;9.40;;
7969;SDS011;4030;52.362;9.206;2023-02-15T10:51:20;10.52;;;9.35;;
7969;SDS011;4030;52.362;9.206;2023-02-15T10:54:09;10.57;;;9.50;;
7969;SDS011;4030;52.362;9.206;2023-02-15T11:02:54;9.38;;;8.48;;
7969;SDS011;4030;52.362;9.206;2023-02-15T11:08:31;9.98;;;8.95;;
7969;SDS011;4030;52.362;9.206;2023-02-15T11:11:07;9.88;;;8.88;;
7969;SDS011;4030;52.362;9.206;2023-02-15T11:13:48;10.60;;;9.50;;
7969;SDS011;4030;52.362;9.206;2023-02-15T11:16:21;11.15;;;10.02;;
7969;SDS011;4030;52.362;9.206;2023-02-15T11:18:53;10.32;;;9.27;;
7969;SDS011;4030;52.362;9.206;2023-02-15T11:21:39;9.77;;;8.88;;
7969;SDS011;4030;52.362;9.206;2023-02-15T11:24:12;10.52;;;9.38;;
7969;SDS011;4030;52.362;9.206;2023-02-15T11:26:47;9.93;;;9.02;;
7969;SDS011;4030;52.362;9.206;2023-02-15T11:29:22;10.43;;;9.40;;
7969;SDS011;4030;52.362;9.206;2023-02-15T11:31:58;10.10;;;9.10;;
7969;SDS011;4030;52.362;9.206;2023-02-15T11:34:49;9.50;;;8.50;;
7969;SDS011;4030;52.362;9.206;2023-02-15T11:37:24;10.02;;;9.07;;
7969;SDS011;4030;52.362;9.206;2023-02-15T11:39:57;9.40;;;8.50;;
7969;SDS011;4030;52.362;9.206;2023-02-15T11:42:26;11.02;;;9.93;;
7969;SDS011;4030;52.362;9.206;2023-02-15T11:47:46;9.85;;;8.85;;
7969;SDS011;4030;52.362;9.206;2023-02-15T11:50:14;12.70;;;9.40;;
7969;SDS011;4030;52.362;9.206;2023-02-15T11:52:46;9.90;;;8.90;;
7969;SDS011;4030;52.362;9.206;2023-02-15T11:55:18;9.60;;;8.60;;
7969;SDS011;4030;52.362;9.206;2023-02-15T11:57:55;9.45;;;8.45;;
7969;SDS011;4030;52.362;9.206;2023-02-15T12:00:34;11.52;;;9.05;;
7969;SDS011;4030;52.362;9.206;2023-02-15T12:03:26;11.63;;;9.55;;
7969;SDS011;4030;52.362;9.206;2023-02-15T12:06:04;11.45;;;8.77;;
7969;SDS011;4030;52.362;9.206;2023-02-15T12:08:36;9.75;;;7.68;;
7969;SDS011;4030;52.362;9.206;2023-02-15T12:11:08;8.48;;;7.65;;
7969;SDS011;4030;52.362;9.206;2023-02-15T12:13:48;9.30;;;7.75;;
7969;SDS011;4030;52.362;9.206;2023-02-15T12:16:28;9.85;;;7.90;;
7969;SDS011;4030;52.362;9.206;2023-02-15T12:18:59;15.43;;;7.43;;
7969;SDS011;4030;52.362;9.206;2023-02-15T12:21:30;10.05;;;7.53;;
7969;SDS011;4030;52.362;9.206;2023-02-15T12:24:03;9.77;;;7.70;;
7969;SDS011;4030;52.362;9.206;2023-02-15T12:26:44;12.07;;;7.28;;
7969;SDS011;4030;52.362;9.206;2023-02-15T12:29:21;11.55;;;7.63;;
7969;SDS011;4030;52.362;9.206;2023-02-15T12:31:54;8.27;;;7.47;;
7969;SDS011;4030;52.362;9.206;2023-02-15T12:36:48;9.05;;;8.10;;
7969;SDS011;4030;52.362;9.206;2023-02-15T12:39:22;7.97;;;7.18;;
7969;SDS011;4030;52.362;9.206;2023-02-15T12:44:29;11.63;;;9.82;;
7969;SDS011;4030;52.362;9.206;2023-02-15T12:47:04;9.02;;;8.13;;
7969;SDS011;4030;52.362;9.206;2023-02-15T12:49:43;10.02;;;7.60;;
7969;SDS011;4030;52.362;9.206;2023-02-15T12:54:45;11.02;;;8.52;;
7969;SDS011;4030;52.362;9.206;2023-02-15T12:59:58;9.30;;;8.38;;
7969;SDS011;4030;52.362;9.206;2023-02-15T13:07:44;12.55;;;8.43;;
7969;SDS011;4030;52.362;9.206;2023-02-15T13:10:21;14.65;;;8.20;;
7969;SDS011;4030;52.362;9.206;2023-02-15T13:12:59;11.38;;;8.57;;
7969;SDS011;4030;52.362;9.206;2023-02-15T13:18:00;12.85;;;9.50;;
7969;SDS011;4030;52.362;9.206;2023-02-15T13:20:27;10.50;;;9.40;;
7969;SDS011;4030;52.362;9.206;2023-02-15T13:23:04;11.77;;;8.05;;
7969;SDS011;4030;52.362;9.206;2023-02-15T13:25:47;12.63;;;9.63;;
7969;SDS011;4030;52.362;9.206;2023-02-15T13:28:16;10.90;;;8.50;;
7969;SDS011;4030;52.362;9.206;2023-02-15T13:30:45;10.18;;;9.18;;
7969;SDS011;4030;52.362;9.206;2023-02-15T13:41:34;9.02;;;8.07;;
7969;SDS011;4030;52.362;9.206;2023-02-15T13:44:21;10.15;;;7.97;;
7969;SDS011;4030;52.362;9.206;2023-02-15T13:47:14;12.25;;;9.02;;
7969;SDS011;4030;52.362;9.206;2023-02-15T13:53:13;9.57;;;8.40;;
7969;SDS011;4030;52.362;9.206;2023-02-15T13:59:10;10.73;;;8.65;;
7969;SDS011;4030;52.362;9.206;2023-02-15T14:01:56;12.50;;;9.00;;
7969;SDS011;4030;52.362;9.206;2023-02-15T14:13:55;35.33;;;8.55;;
7969;SDS011;4030;52.362;9.206;2023-02-15T14:19:43;22.70;;;8.13;;
7969;SDS011;4030;52.362;9.206;2023-02-15T14:25:27;36.78;;;7.78;;
7969;SDS011;4030;52.362;9.206;2023-02-15T14:30:55;19.20;;;6.45;;
7969;SDS011;4030;52.362;9.206;2023-02-15T14:33:29;18.85;;;7.13;;
7969;SDS011;4030;52.362;9.206;2023-02-15T14:36:04;18.77;;;6.70;;
7969;SDS011;4030;52.362;9.206;2023-02-15T14:38:43;23.90;;;6.43;;
7969;SDS011;4030;52.362;9.206;2023-02-15T14:41:53;16.30;;;6.88;;
7969;SDS011;4030;52.362;9.206;2023-02-15T14:44:36;17.73;;;6.57;;
7969;SDS011;4030;52.362;9.206;2023-02-15T14:47:26;16.05;;;6.80;;
7969;SDS011;4030;52.362;9.206;2023-02-15T15:01:14;12.27;;;6.57;;
7969;SDS011;4030;52.362;9.206;2023-02-15T15:03:47;12.13;;;7.28;;
7969;SDS011;4030;52.362;9.206;2023-02-15T15:06:40;11.10;;;6.43;;
7969;SDS011;4030;52.362;9.206;2023-02-15T15:09:41;12.60;;;6.60;;
7969;SDS011;4030;52.362;9.206;2023-02-15T15:14:57;10.13;;;6.65;;
7969;SDS011;4030;52.362;9.206;2023-02-15T15:20:10;9.70;;;6.93;;
7969;SDS011;4030;52.362;9.206;2023-02-15T15:22:38;13.05;;;6.93;;
7969;SDS011;4030;52.362;9.206;2023-02-15T15:25:11;9.82;;;6.90;;
7969;SDS011;4030;52.362;9.206;2023-02-15T15:28:07;7.88;;;5.82;;
7969;SDS011;4030;52.362;9.206;2023-02-15T15:32:59;8.85;;;7.07;;
7969;SDS011;4030;52.362;9.206;2023-02-15T15:47:26;9.52;;;7.95;;
7969;SDS011;4030;52.362;9.206;2023-02-15T15:50:22;11.23;;;7.43;;
7969;SDS011;4030;52.362;9.206;2023-02-15T15:52:54;8.23;;;7.30;;
7969;SDS011;4030;52.362;9.206;2023-02-15T15:55:24;8.52;;;6.82;;
7969;SDS011;4030;52.362;9.206;2023-02-15T15:57:53;10.70;;;7.30;;
7969;SDS011;4030;52.362;9.206;2023-02-15T16:03:16;8.77;;;7.75;;
7969;SDS011;4030;52.362;9.206;2023-02-15T16:05:51;10.30;;;7.40;;
7969;SDS011;4030;52.362;9.206;2023-02-15T16:10:54;7.50;;;6.55;;
7969;SDS011;4030;52.362;9.206;2023-02-15T16:13:20;7.13;;;6.43;;
7969;SDS011;4030;52.362;9.206;2023-02-15T16:15:46;8.35;;;7.45;;
7969;SDS011;4030;52.362;9.206;2023-02-15T16:18:17;8.13;;;6.65;;
7969;SDS011;4030;52.362;9.206;2023-02-15T16:20:56;8.40;;;6.97;;
7969;SDS011;4030;52.362;9.206;2023-02-15T16:28:29;8.18;;;7.38;;
7969;SDS011;4030;52.362;9.206;2023-02-15T16:31:04;8.68;;;6.80;;
7969;SDS011;4030;52.362;9.206;2023-02-15T16:33:39;7.78;;;6.97;;
7969;SDS011;4030;52.362;9.206;2023-02-15T16:36:11;8.35;;;6.25;;
7969;SDS011;4030;52.362;9.206;2023-02-15T16:41:15;8.45;;;6.55;;
7969;SDS011;4030;52.362;9.206;2023-02-15T16:43:50;9.68;;;7.07;;
7969;SDS011;4030;52.362;9.206;2023-02-15T16:46:32;9.07;;;6.57;;
7969;SDS011;4030;52.362;9.206;2023-02-15T16:49:02;7.50;;;6.13;;
7969;SDS011;4030;52.362;9.206;2023-02-15T16:52:01;6.53;;;5.93;;
7969;SDS011;4030;52.362;9.206;2023-02-15T16:54:33;7.78;;;6.43;;
7969;SDS011;4030;52.362;9.206;2023-02-15T16:57:00;6.35;;;5.68;;
7969;SDS011;4030;52.362;9.206;2023-02-15T16:59:34;7.38;;;6.15;;
7969;SDS011;4030;52.362;9.206;2023-02-15T17:02:13;7.93;;;6.10;;
7969;SDS011;4030;52.362;9.206;2023-02-15T17:07:32;6.55;;;5.85;;
7969;SDS011;4030;52.362;9.206;2023-02-15T17:09:58;6.60;;;5.53;;
7969;SDS011;4030;52.362;9.206;2023-02-15T17:12:43;8.10;;;6.05;;
7969;SDS011;4030;52.362;9.206;2023-02-15T17:15:24;7.32;;;5.90;;
7969;SDS011;4030;52.362;9.206;2023-02-15T17:17:54;7.60;;;5.70;;
7969;SDS011;4030;52.362;9.206;2023-02-15T17:20:26;8.25;;;6.35;;
7969;SDS011;4030;52.362;9.206;2023-02-15T17:22:53;7.35;;;6.00;;
7969;SDS011;4030;52.362;9.206;2023-02-15T17:25:20;7.55;;;6.22;;
7969;SDS011;4030;52.362;9.206;2023-02-15T17:27:51;7.47;;;6.22;;
7969;SDS011;4030;52.362;9.206;2023-02-15T17:30:24;7.55;;;6.35;;
7969;SDS011;4030;52.362;9.206;2023-02-15T17:32:59;6.88;;;6.07;;
7969;SDS011;4030;52.362;9.206;2023-02-15T17:35:28;7.28;;;6.10;;
7969;SDS011;4030;52.362;9.206;2023-02-15T17:40:51;7.35;;;6.30;;
7969;SDS011;4030;52.362;9.206;2023-02-15T17:43:17;7.40;;;6.55;;
7969;SDS011;4030;52.362;9.206;2023-02-15T17:45:44;7.10;;;6.40;;
7969;SDS011;4030;52.362;9.206;2023-02-15T17:48:33;7.55;;;6.47;;
7969;SDS011;4030;52.362;9.206;2023-02-15T17:51:01;8.02;;;5.90;;
7969;SDS011;4030;52.362;9.206;2023-02-15T17:53:30;9.00;;;6.13;;
7969;SDS011;4030;52.362;9.206;2023-02-15T17:55:56;7.53;;;6.40;;
7969;SDS011;4030;52.362;9.206;2023-02-15T17:58:23;7.15;;;5.85;;
7969;SDS011;4030;52.362;9.206;2023-02-15T18:00:49;7.53;;;6.20;;
7969;SDS011;4030;52.362;9.206;2023-02-15T18:03:39;7.43;;;6.25;;
7969;SDS011;4030;52.362;9.206;2023-02-15T18:06:30;7.40;;;5.90;;
7969;SDS011;4030;52.362;9.206;2023-02-15T18:09:18;6.13;;;5.43;;
7969;SDS011;4030;52.362;9.206;2023-02-15T18:12:21;6.93;;;5.88;;
7969;SDS011;4030;52.362;9.206;2023-02-15T18:14:55;6.85;;;6.13;;
7969;SDS011;4030;52.362;9.206;2023-02-15T18:17:27;6.88;;;6.13;;
7969;SDS011;4030;52.362;9.206;2023-02-15T18:19:57;6.20;;;5.57;;
7969;SDS011;4030;52.362;9.206;2023-02-15T18:22:25;7.13;;;6.05;;
7969;SDS011;4030;52.362;9.206;2023-02-15T18:24:53;6.78;;;6.05;;
7969;SDS011;4030;52.362;9.206;2023-02-15T18:27:19;7.05;;;5.75;;
7969;SDS011;4030;52.362;9.206;2023-02-15T18:29:46;6.72;;;5.90;;
7969;SDS011;4030;52.362;9.206;2023-02-15T18:32:14;7.25;;;6.40;;
7969;SDS011;4030;52.362;9.206;2023-02-15T18:34:45;7.88;;;6.05;;
7969;SDS011;4030;52.362;9.206;2023-02-15T18:37:13;6.15;;;5.55;;
7969;SDS011;4030;52.362;9.206;2023-02-15T18:39:44;6.43;;;5.55;;
7969;SDS011;4030;52.362;9.206;2023-02-15T18:42:19;6.57;;;5.78;;
7969;SDS011;4030;52.362;9.206;2023-02-15T18:45:00;6.15;;;5.50;;
7969;SDS011;4030;52.362;9.206;2023-02-15T18:47:39;6.85;;;5.63;;
7969;SDS011;4030;52.362;9.206;2023-02-15T18:50:05;6.50;;;5.68;;
7969;SDS011;4030;52.362;9.206;2023-02-15T18:52:33;6.85;;;5.95;;